Search for airport 
image banner adimage banner adimage banner ad
image banner ad

KNLC - Lemoore Nas (Reeves Fld)

Located in Lemoore, United States

ICAO - NLC, IATA -

Data provided by Airmate  

General information

Coordinates: N36°19'59" W119°57'8"
Elevation is 229 feet MSL.
Magnetic variation is 14° East
View others Airports in California

Operational data

Special qualification required
Current time UTC:
Current local time:
Weather
METAR: KNLC 221408Z 31010KT 10SM CLR 17/11 A2991 RMK AO2 RH/64 T01720106
TAF: TAF KNLC 2207/2307 30007KT 9999 SKC QNH2979INS TEMPO 2216/2221 VRB06KT FM222100 23009KT 9999 SKC QNH2974INS FM230000 27009KT 9999 SKC QNH2973INS FM230500 32009KT 9999 SKC QNH2976INS AUTOMATED SENSOR METWATCH 2207 TIL 2215 T16/2213Z T37/2223Z FS30171
View NOTAMs / SUP AIP / TFR affecting this airport [VIEW]
Communications frequencies: [VIEW]

Runways:

RWY identifierQFULength (ft)Width (ft)SurfaceLDA (ft)
14R156°13501200CONC
32L336°13501200CONC
14L156°13502200CONC
32R336°13502200CONC

Airport contact information

Address: Lemoore United States

Satellite view of KNLC